sensor_id;sensor_type;location;lat;lon;timestamp;temperature;humidity
5174;DHT22;2606;50.934;6.934;2022-12-29T00:02:04;11.20;99.90
5174;DHT22;2606;50.934;6.934;2022-12-29T00:04:30;11.20;99.90
5174;DHT22;2606;50.934;6.934;2022-12-29T00:06:56;11.20;99.90
5174;DHT22;2606;50.934;6.934;2022-12-29T00:09:21;11.20;99.90
5174;DHT22;2606;50.934;6.934;2022-12-29T00:11:47;11.20;99.90
5174;DHT22;2606;50.934;6.934;2022-12-29T00:14:15;11.20;99.90
5174;DHT22;2606;50.934;6.934;2022-12-29T00:16:59;11.30;99.90
5174;DHT22;2606;50.934;6.934;2022-12-29T00:19:25;11.20;99.90
5174;DHT22;2606;50.934;6.934;2022-12-29T00:22:11;11.20;99.90
5174;DHT22;2606;50.934;6.934;2022-12-29T00:24:55;11.20;99.90
5174;DHT22;2606;50.934;6.934;2022-12-29T00:27:40;11.20;99.90
5174;DHT22;2606;50.934;6.934;2022-12-29T00:30:24;11.30;99.90
5174;DHT22;2606;50.934;6.934;2022-12-29T00:33:13;11.20;99.90
5174;DHT22;2606;50.934;6.934;2022-12-29T00:36:02;11.30;99.90
5174;DHT22;2606;50.934;6.934;2022-12-29T00:38:29;11.40;99.90
5174;DHT22;2606;50.934;6.934;2022-12-29T00:41:14;11.30;99.90
5174;DHT22;2606;50.934;6.934;2022-12-29T00:43:58;11.30;99.90
5174;DHT22;2606;50.934;6.934;2022-12-29T00:46:41;11.30;99.90
5174;DHT22;2606;50.934;6.934;2022-12-29T00:49:08;11.30;99.90
5174;DHT22;2606;50.934;6.934;2022-12-29T00:51:54;11.30;99.90
5174;DHT22;2606;50.934;6.934;2022-12-29T00:54:20;11.50;99.90
5174;DHT22;2606;50.934;6.934;2022-12-29T00:56:47;11.40;99.90
5174;DHT22;2606;50.934;6.934;2022-12-29T00:59:14;11.40;99.90
5174;DHT22;2606;50.934;6.934;2022-12-29T01:01:40;11.40;99.90
5174;DHT22;2606;50.934;6.934;2022-12-29T01:04:05;11.50;99.90
5174;DHT22;2606;50.934;6.934;2022-12-29T01:06:32;11.50;99.90
5174;DHT22;2606;50.934;6.934;2022-12-29T01:08:58;11.50;99.90
5174;DHT22;2606;50.934;6.934;2022-12-29T01:11:42;11.50;99.90
5174;DHT22;2606;50.934;6.934;2022-12-29T01:14:08;11.60;99.90
5174;DHT22;2606;50.934;6.934;2022-12-29T01:16:34;11.60;99.90
5174;DHT22;2606;50.934;6.934;2022-12-29T01:18:59;11.60;99.90
5174;DHT22;2606;50.934;6.934;2022-12-29T01:21:25;11.70;99.90
5174;DHT22;2606;50.934;6.934;2022-12-29T01:23:51;11.70;99.90
5174;DHT22;2606;50.934;6.934;2022-12-29T01:26:17;11.90;99.90
5174;DHT22;2606;50.934;6.934;2022-12-29T01:28:43;11.70;99.90
5174;DHT22;2606;50.934;6.934;2022-12-29T01:31:10;11.80;99.90
5174;DHT22;2606;50.934;6.934;2022-12-29T01:33:37;11.80;99.90
5174;DHT22;2606;50.934;6.934;2022-12-29T01:36:04;11.80;99.90
5174;DHT22;2606;50.934;6.934;2022-12-29T01:38:30;11.80;99.90
5174;DHT22;2606;50.934;6.934;2022-12-29T01:40:56;11.80;99.90
5174;DHT22;2606;50.934;6.934;2022-12-29T01:43:37;11.80;99.90
5174;DHT22;2606;50.934;6.934;2022-12-29T01:46:03;11.80;99.90
5174;DHT22;2606;50.934;6.934;2022-12-29T01:48:29;11.80;99.90
5174;DHT22;2606;50.934;6.934;2022-12-29T01:50:55;11.80;99.90
5174;DHT22;2606;50.934;6.934;2022-12-29T01:53:32;11.80;99.90
5174;DHT22;2606;50.934;6.934;2022-12-29T01:56:01;11.80;99.90
5174;DHT22;2606;50.934;6.934;2022-12-29T01:58:31;11.90;99.90
5174;DHT22;2606;50.934;6.934;2022-12-29T02:00:58;11.80;99.90
5174;DHT22;2606;50.934;6.934;2022-12-29T02:03:27;11.70;99.90
5174;DHT22;2606;50.934;6.934;2022-12-29T02:06:22;11.80;99.90
5174;DHT22;2606;50.934;6.934;2022-12-29T02:08:52;11.80;99.90
5174;DHT22;2606;50.934;6.934;2022-12-29T02:11:20;11.90;99.90
5174;DHT22;2606;50.934;6.934;2022-12-29T02:13:46;11.70;99.90
5174;DHT22;2606;50.934;6.934;2022-12-29T02:16:26;11.70;99.90
5174;DHT22;2606;50.934;6.934;2022-12-29T02:21:58;11.70;99.90
5174;DHT22;2606;50.934;6.934;2022-12-29T02:37:27;11.90;99.90
5174;DHT22;2606;50.934;6.934;2022-12-29T02:42:40;11.80;99.90
5174;DHT22;2606;50.934;6.934;2022-12-29T02:45:15;11.90;99.90
5174;DHT22;2606;50.934;6.934;2022-12-29T02:50:36;11.90;99.90
5174;DHT22;2606;50.934;6.934;2022-12-29T02:53:06;11.90;99.90
5174;DHT22;2606;50.934;6.934;2022-12-29T02:55:33;11.90;99.90
5174;DHT22;2606;50.934;6.934;2022-12-29T02:58:18;11.90;99.90
5174;DHT22;2606;50.934;6.934;2022-12-29T03:01:18;11.90;99.90
5174;DHT22;2606;50.934;6.934;2022-12-29T03:06:50;11.90;99.90
5174;DHT22;2606;50.934;6.934;2022-12-29T03:09:21;12.00;99.90
5174;DHT22;2606;50.934;6.934;2022-12-29T03:15:03;12.00;99.90
5174;DHT22;2606;50.934;6.934;2022-12-29T03:18:01;12.00;99.90
5174;DHT22;2606;50.934;6.934;2022-12-29T03:20:41;12.00;99.90
5174;DHT22;2606;50.934;6.934;2022-12-29T03:23:08;12.00;99.90
5174;DHT22;2606;50.934;6.934;2022-12-29T03:25:48;12.00;99.90
5174;DHT22;2606;50.934;6.934;2022-12-29T03:28:21;12.00;99.90
5174;DHT22;2606;50.934;6.934;2022-12-29T03:30:47;12.00;99.90
5174;DHT22;2606;50.934;6.934;2022-12-29T03:33:16;12.00;99.90
5174;DHT22;2606;50.934;6.934;2022-12-29T03:35:44;12.00;99.90
5174;DHT22;2606;50.934;6.934;2022-12-29T03:38:17;12.10;99.90
5174;DHT22;2606;50.934;6.934;2022-12-29T03:40:46;12.00;99.90
5174;DHT22;2606;50.934;6.934;2022-12-29T03:43:13;12.00;99.90
5174;DHT22;2606;50.934;6.934;2022-12-29T03:45:40;12.00;99.90
5174;DHT22;2606;50.934;6.934;2022-12-29T03:48:05;12.10;99.90
5174;DHT22;2606;50.934;6.934;2022-12-29T03:50:31;12.10;99.90
5174;DHT22;2606;50.934;6.934;2022-12-29T03:52:57;12.10;99.90
5174;DHT22;2606;50.934;6.934;2022-12-29T03:55:23;12.20;99.90
5174;DHT22;2606;50.934;6.934;2022-12-29T03:57:48;12.20;99.90
5174;DHT22;2606;50.934;6.934;2022-12-29T04:00:14;12.20;99.90
5174;DHT22;2606;50.934;6.934;2022-12-29T04:02:40;12.20;99.90
5174;DHT22;2606;50.934;6.934;2022-12-29T04:05:06;12.10;99.90
5174;DHT22;2606;50.934;6.934;2022-12-29T04:07:31;12.10;99.90
5174;DHT22;2606;50.934;6.934;2022-12-29T04:10:00;12.10;99.90
5174;DHT22;2606;50.934;6.934;2022-12-29T04:12:25;12.10;99.90
5174;DHT22;2606;50.934;6.934;2022-12-29T04:14:51;12.10;99.90
5174;DHT22;2606;50.934;6.934;2022-12-29T04:17:16;12.00;99.90
5174;DHT22;2606;50.934;6.934;2022-12-29T04:19:42;12.00;99.90
5174;DHT22;2606;50.934;6.934;2022-12-29T04:22:08;12.00;99.90
5174;DHT22;2606;50.934;6.934;2022-12-29T04:24:33;12.00;99.90
5174;DHT22;2606;50.934;6.934;2022-12-29T04:26:59;12.00;99.90
5174;DHT22;2606;50.934;6.934;2022-12-29T04:29:24;12.00;99.90
5174;DHT22;2606;50.934;6.934;2022-12-29T04:31:50;12.00;99.90
5174;DHT22;2606;50.934;6.934;2022-12-29T04:34:15;12.00;99.90
5174;DHT22;2606;50.934;6.934;2022-12-29T04:36:41;12.00;99.90
5174;DHT22;2606;50.934;6.934;2022-12-29T04:39:07;12.00;99.90
5174;DHT22;2606;50.934;6.934;2022-12-29T04:41:33;12.00;99.90
5174;DHT22;2606;50.934;6.934;2022-12-29T04:43:58;12.00;99.90
5174;DHT22;2606;50.934;6.934;2022-12-29T04:46:24;12.00;99.90
5174;DHT22;2606;50.934;6.934;2022-12-29T04:48:50;11.90;99.90
5174;DHT22;2606;50.934;6.934;2022-12-29T04:51:16;11.90;99.90
5174;DHT22;2606;50.934;6.934;2022-12-29T04:53:42;11.90;99.90
5174;DHT22;2606;50.934;6.934;2022-12-29T04:56:08;11.80;99.90
5174;DHT22;2606;50.934;6.934;2022-12-29T04:58:34;11.80;99.90
5174;DHT22;2606;50.934;6.934;2022-12-29T05:01:00;11.70;99.90
5174;DHT22;2606;50.934;6.934;2022-12-29T05:03:26;11.80;99.90
5174;DHT22;2606;50.934;6.934;2022-12-29T05:05:55;11.80;99.90
5174;DHT22;2606;50.934;6.934;2022-12-29T05:08:22;11.80;99.90
5174;DHT22;2606;50.934;6.934;2022-12-29T05:10:49;11.70;99.90
5174;DHT22;2606;50.934;6.934;2022-12-29T05:13:15;11.80;99.90
5174;DHT22;2606;50.934;6.934;2022-12-29T05:15:41;11.70;99.90
5174;DHT22;2606;50.934;6.934;2022-12-29T05:18:10;11.70;99.90
5174;DHT22;2606;50.934;6.934;2022-12-29T05:20:36;11.70;99.90
5174;DHT22;2606;50.934;6.934;2022-12-29T05:23:01;11.70;99.90
5174;DHT22;2606;50.934;6.934;2022-12-29T05:25:27;11.70;99.90
5174;DHT22;2606;50.934;6.934;2022-12-29T05:27:53;11.70;99.90
5174;DHT22;2606;50.934;6.934;2022-12-29T05:30:18;11.60;99.90
5174;DHT22;2606;50.934;6.934;2022-12-29T05:32:44;11.70;99.90
5174;DHT22;2606;50.934;6.934;2022-12-29T05:35:09;11.60;99.90
5174;DHT22;2606;50.934;6.934;2022-12-29T05:37:35;11.70;99.90
5174;DHT22;2606;50.934;6.934;2022-12-29T05:40:00;11.60;99.90
5174;DHT22;2606;50.934;6.934;2022-12-29T05:42:26;11.60;99.90
5174;DHT22;2606;50.934;6.934;2022-12-29T05:44:51;11.70;99.90
5174;DHT22;2606;50.934;6.934;2022-12-29T05:47:19;11.60;99.90
5174;DHT22;2606;50.934;6.934;2022-12-29T05:49:44;11.60;99.90
5174;DHT22;2606;50.934;6.934;2022-12-29T05:52:10;11.60;99.90
5174;DHT22;2606;50.934;6.934;2022-12-29T05:54:36;11.70;99.90
5174;DHT22;2606;50.934;6.934;2022-12-29T05:57:01;11.70;99.90
5174;DHT22;2606;50.934;6.934;2022-12-29T05:59:27;11.70;99.90
5174;DHT22;2606;50.934;6.934;2022-12-29T06:01:52;11.70;99.90
5174;DHT22;2606;50.934;6.934;2022-12-29T06:04:18;11.70;99.90
5174;DHT22;2606;50.934;6.934;2022-12-29T06:06:44;11.70;99.90
5174;DHT22;2606;50.934;6.934;2022-12-29T06:09:10;11.70;99.90
5174;DHT22;2606;50.934;6.934;2022-12-29T06:11:36;11.70;99.90
5174;DHT22;2606;50.934;6.934;2022-12-29T06:14:01;11.80;99.90
5174;DHT22;2606;50.934;6.934;2022-12-29T06:16:27;11.80;99.90
5174;DHT22;2606;50.934;6.934;2022-12-29T06:18:52;11.70;99.90
5174;DHT22;2606;50.934;6.934;2022-12-29T06:21:18;11.70;99.90
5174;DHT22;2606;50.934;6.934;2022-12-29T06:23:44;11.70;99.90
5174;DHT22;2606;50.934;6.934;2022-12-29T06:26:09;11.70;99.90
5174;DHT22;2606;50.934;6.934;2022-12-29T06:28:35;11.80;99.90
5174;DHT22;2606;50.934;6.934;2022-12-29T06:31:01;11.80;99.90
5174;DHT22;2606;50.934;6.934;2022-12-29T06:33:28;11.90;99.90
5174;DHT22;2606;50.934;6.934;2022-12-29T06:35:54;11.80;99.90
5174;DHT22;2606;50.934;6.934;2022-12-29T06:38:19;11.80;99.90
5174;DHT22;2606;50.934;6.934;2022-12-29T06:40:45;11.80;99.90
5174;DHT22;2606;50.934;6.934;2022-12-29T06:43:11;11.80;99.90
5174;DHT22;2606;50.934;6.934;2022-12-29T06:45:38;11.80;99.90
5174;DHT22;2606;50.934;6.934;2022-12-29T06:48:05;11.80;99.90
5174;DHT22;2606;50.934;6.934;2022-12-29T06:50:31;11.80;99.90
5174;DHT22;2606;50.934;6.934;2022-12-29T06:52:57;11.80;99.90
5174;DHT22;2606;50.934;6.934;2022-12-29T06:55:22;11.80;99.90
5174;DHT22;2606;50.934;6.934;2022-12-29T06:57:48;11.80;99.90
5174;DHT22;2606;50.934;6.934;2022-12-29T07:00:14;11.80;99.90
5174;DHT22;2606;50.934;6.934;2022-12-29T07:02:39;11.80;99.90
5174;DHT22;2606;50.934;6.934;2022-12-29T07:05:05;11.80;99.90
5174;DHT22;2606;50.934;6.934;2022-12-29T07:07:32;11.80;99.90
5174;DHT22;2606;50.934;6.934;2022-12-29T07:09:58;11.80;99.90
5174;DHT22;2606;50.934;6.934;2022-12-29T07:12:23;11.80;99.90
5174;DHT22;2606;50.934;6.934;2022-12-29T07:14:49;11.70;99.90
5174;DHT22;2606;50.934;6.934;2022-12-29T07:17:14;11.80;99.90
5174;DHT22;2606;50.934;6.934;2022-12-29T07:19:40;11.90;99.90
5174;DHT22;2606;50.934;6.934;2022-12-29T07:22:05;11.70;99.90
5174;DHT22;2606;50.934;6.934;2022-12-29T07:24:31;11.80;99.90
5174;DHT22;2606;50.934;6.934;2022-12-29T07:26:57;11.70;99.90
5174;DHT22;2606;50.934;6.934;2022-12-29T07:29:22;11.80;99.90
5174;DHT22;2606;50.934;6.934;2022-12-29T07:31:48;11.70;99.90
5174;DHT22;2606;50.934;6.934;2022-12-29T07:34:13;11.70;99.90
5174;DHT22;2606;50.934;6.934;2022-12-29T07:36:39;11.80;99.90
5174;DHT22;2606;50.934;6.934;2022-12-29T07:39:05;11.70;99.90
5174;DHT22;2606;50.934;6.934;2022-12-29T07:41:30;11.70;99.90
5174;DHT22;2606;50.934;6.934;2022-12-29T07:43:56;11.70;99.90
5174;DHT22;2606;50.934;6.934;2022-12-29T07:46:21;11.60;99.90
5174;DHT22;2606;50.934;6.934;2022-12-29T07:48:47;11.70;99.90
5174;DHT22;2606;50.934;6.934;2022-12-29T07:51:13;11.70;99.90
5174;DHT22;2606;50.934;6.934;2022-12-29T07:53:38;11.70;99.90
5174;DHT22;2606;50.934;6.934;2022-12-29T07:56:04;11.70;99.90
5174;DHT22;2606;50.934;6.934;2022-12-29T07:58:30;11.70;99.90
5174;DHT22;2606;50.934;6.934;2022-12-29T08:00:56;11.70;99.90
5174;DHT22;2606;50.934;6.934;2022-12-29T08:03:22;11.70;99.90
5174;DHT22;2606;50.934;6.934;2022-12-29T08:05:48;11.70;99.90
5174;DHT22;2606;50.934;6.934;2022-12-29T08:08:13;11.70;99.90
5174;DHT22;2606;50.934;6.934;2022-12-29T08:10:39;11.70;99.90
5174;DHT22;2606;50.934;6.934;2022-12-29T08:13:06;11.60;99.90
5174;DHT22;2606;50.934;6.934;2022-12-29T08:15:31;11.70;99.90
5174;DHT22;2606;50.934;6.934;2022-12-29T08:17:57;11.70;99.90
5174;DHT22;2606;50.934;6.934;2022-12-29T08:20:22;11.60;99.90
5174;DHT22;2606;50.934;6.934;2022-12-29T08:22:48;11.60;99.90
5174;DHT22;2606;50.934;6.934;2022-12-29T08:25:13;11.70;99.90
5174;DHT22;2606;50.934;6.934;2022-12-29T08:27:39;11.60;99.90
5174;DHT22;2606;50.934;6.934;2022-12-29T08:30:05;11.60;99.90
5174;DHT22;2606;50.934;6.934;2022-12-29T08:32:31;11.60;99.90
5174;DHT22;2606;50.934;6.934;2022-12-29T08:34:57;11.70;99.90
5174;DHT22;2606;50.934;6.934;2022-12-29T08:37:22;11.60;99.90
5174;DHT22;2606;50.934;6.934;2022-12-29T08:39:48;11.60;99.90
5174;DHT22;2606;50.934;6.934;2022-12-29T08:42:14;11.60;99.90
5174;DHT22;2606;50.934;6.934;2022-12-29T08:44:39;11.60;99.90
5174;DHT22;2606;50.934;6.934;2022-12-29T08:47:05;11.50;99.90
5174;DHT22;2606;50.934;6.934;2022-12-29T08:49:31;11.50;99.90
5174;DHT22;2606;50.934;6.934;2022-12-29T08:51:58;11.50;99.90
5174;DHT22;2606;50.934;6.934;2022-12-29T08:54:24;11.60;99.90
5174;DHT22;2606;50.934;6.934;2022-12-29T08:56:50;11.50;99.90
5174;DHT22;2606;50.934;6.934;2022-12-29T08:59:15;11.50;99.90
5174;DHT22;2606;50.934;6.934;2022-12-29T09:01:46;11.50;99.90
5174;DHT22;2606;50.934;6.934;2022-12-29T09:04:12;11.50;99.90
5174;DHT22;2606;50.934;6.934;2022-12-29T09:06:37;11.50;99.90
5174;DHT22;2606;50.934;6.934;2022-12-29T09:09:03;11.50;99.90
5174;DHT22;2606;50.934;6.934;2022-12-29T09:11:29;11.50;99.90
5174;DHT22;2606;50.934;6.934;2022-12-29T09:13:55;11.50;99.90
5174;DHT22;2606;50.934;6.934;2022-12-29T09:16:28;11.50;99.90
5174;DHT22;2606;50.934;6.934;2022-12-29T09:18:53;11.60;99.90
5174;DHT22;2606;50.934;6.934;2022-12-29T09:21:19;11.60;99.90
5174;DHT22;2606;50.934;6.934;2022-12-29T09:23:48;11.60;99.90
5174;DHT22;2606;50.934;6.934;2022-12-29T09:26:14;11.60;99.90
5174;DHT22;2606;50.934;6.934;2022-12-29T09:28:39;11.60;99.90
5174;DHT22;2606;50.934;6.934;2022-12-29T09:31:05;11.60;99.90
5174;DHT22;2606;50.934;6.934;2022-12-29T09:33:31;11.60;99.90
5174;DHT22;2606;50.934;6.934;2022-12-29T09:35:59;11.60;99.90
5174;DHT22;2606;50.934;6.934;2022-12-29T09:38:26;11.70;99.90
5174;DHT22;2606;50.934;6.934;2022-12-29T09:40:59;11.70;99.90
5174;DHT22;2606;50.934;6.934;2022-12-29T09:43:57;11.70;99.90
5174;DHT22;2606;50.934;6.934;2022-12-29T09:46:30;11.70;99.90
5174;DHT22;2606;50.934;6.934;2022-12-29T09:49:45;11.70;99.90
5174;DHT22;2606;50.934;6.934;2022-12-29T09:51:46;11.70;99.90
5174;DHT22;2606;50.934;6.934;2022-12-29T09:54:42;11.80;99.90
5174;DHT22;2606;50.934;6.934;2022-12-29T09:57:25;11.90;99.90
5174;DHT22;2606;50.934;6.934;2022-12-29T09:59:59;11.90;99.90
5174;DHT22;2606;50.934;6.934;2022-12-29T10:02:39;12.00;99.90
5174;DHT22;2606;50.934;6.934;2022-12-29T10:11:05;12.00;99.90
5174;DHT22;2606;50.934;6.934;2022-12-29T10:19:22;12.10;99.90
5174;DHT22;2606;50.934;6.934;2022-12-29T10:24:37;12.20;99.90
5174;DHT22;2606;50.934;6.934;2022-12-29T10:27:05;12.20;99.90
5174;DHT22;2606;50.934;6.934;2022-12-29T10:29:38;12.20;99.90
5174;DHT22;2606;50.934;6.934;2022-12-29T10:34:54;12.30;99.90
5174;DHT22;2606;50.934;6.934;2022-12-29T10:40:58;12.30;99.50
5174;DHT22;2606;50.934;6.934;2022-12-29T10:43:22;12.30;99.30
5174;DHT22;2606;50.934;6.934;2022-12-29T10:45:49;12.30;99.60
5174;DHT22;2606;50.934;6.934;2022-12-29T10:48:21;12.40;99.70
5174;DHT22;2606;50.934;6.934;2022-12-29T10:50:56;12.40;99.70
5174;DHT22;2606;50.934;6.934;2022-12-29T10:53:26;12.40;99.50
5174;DHT22;2606;50.934;6.934;2022-12-29T10:55:58;12.40;99.60
5174;DHT22;2606;50.934;6.934;2022-12-29T10:58:29;12.50;99.80
5174;DHT22;2606;50.934;6.934;2022-12-29T11:00:57;12.50;99.40
5174;DHT22;2606;50.934;6.934;2022-12-29T11:08:57;12.50;99.80
5174;DHT22;2606;50.934;6.934;2022-12-29T11:11:32;12.50;99.50
5174;DHT22;2606;50.934;6.934;2022-12-29T11:14:47;12.60;99.80
5174;DHT22;2606;50.934;6.934;2022-12-29T11:19:25;12.60;99.90
5174;DHT22;2606;50.934;6.934;2022-12-29T11:21:51;12.70;99.90
5174;DHT22;2606;50.934;6.934;2022-12-29T11:24:26;12.70;99.90
5174;DHT22;2606;50.934;6.934;2022-12-29T11:26:54;12.70;99.80
5174;DHT22;2606;50.934;6.934;2022-12-29T11:29:38;12.80;99.80
5174;DHT22;2606;50.934;6.934;2022-12-29T11:34:37;12.70;99.60
5174;DHT22;2606;50.934;6.934;2022-12-29T11:39:45;12.80;99.60
5174;DHT22;2606;50.934;6.934;2022-12-29T11:42:17;12.80;99.50
5174;DHT22;2606;50.934;6.934;2022-12-29T11:44:46;12.70;99.40
5174;DHT22;2606;50.934;6.934;2022-12-29T11:47:28;12.70;99.70
5174;DHT22;2606;50.934;6.934;2022-12-29T11:49:58;12.70;99.60
5174;DHT22;2606;50.934;6.934;2022-12-29T11:52:27;12.70;99.70
5174;DHT22;2606;50.934;6.934;2022-12-29T11:54:55;12.60;99.80
5174;DHT22;2606;50.934;6.934;2022-12-29T11:57:22;12.70;99.90
5174;DHT22;2606;50.934;6.934;2022-12-29T11:59:53;12.70;99.90
5174;DHT22;2606;50.934;6.934;2022-12-29T12:04:49;12.70;99.90
5174;DHT22;2606;50.934;6.934;2022-12-29T12:07:22;12.70;99.90
5174;DHT22;2606;50.934;6.934;2022-12-29T12:09:58;12.70;99.90
5174;DHT22;2606;50.934;6.934;2022-12-29T12:12:47;12.70;99.50
5174;DHT22;2606;50.934;6.934;2022-12-29T12:15:33;12.70;99.40
5174;DHT22;2606;50.934;6.934;2022-12-29T12:18:08;12.70;99.10
5174;DHT22;2606;50.934;6.934;2022-12-29T12:23:44;12.70;99.50
5174;DHT22;2606;50.934;6.934;2022-12-29T12:26:22;12.60;99.60
5174;DHT22;2606;50.934;6.934;2022-12-29T12:34:43;12.60;99.80
5174;DHT22;2606;50.934;6.934;2022-12-29T12:37:23;12.60;99.90
5174;DHT22;2606;50.934;6.934;2022-12-29T12:42:51;12.60;99.90
5174;DHT22;2606;50.934;6.934;2022-12-29T12:45:40;12.50;99.90
5174;DHT22;2606;50.934;6.934;2022-12-29T12:50:52;12.60;99.90
5174;DHT22;2606;50.934;6.934;2022-12-29T12:54:01;12.60;99.90
5174;DHT22;2606;50.934;6.934;2022-12-29T13:02:50;12.50;99.90
5174;DHT22;2606;50.934;6.934;2022-12-29T13:05:38;12.50;99.90
5174;DHT22;2606;50.934;6.934;2022-12-29T13:16:20;12.50;99.90
5174;DHT22;2606;50.934;6.934;2022-12-29T13:21:39;12.50;99.90
5174;DHT22;2606;50.934;6.934;2022-12-29T13:24:20;12.40;99.90
5174;DHT22;2606;50.934;6.934;2022-12-29T13:26:53;12.30;99.90
5174;DHT22;2606;50.934;6.934;2022-12-29T13:29:40;12.30;99.90
5174;DHT22;2606;50.934;6.934;2022-12-29T13:32:34;12.30;99.90
5174;DHT22;2606;50.934;6.934;2022-12-29T13:38:08;12.20;99.90
5174;DHT22;2606;50.934;6.934;2022-12-29T13:40:40;12.20;99.90
5174;DHT22;2606;50.934;6.934;2022-12-29T13:43:07;12.20;99.90
5174;DHT22;2606;50.934;6.934;2022-12-29T13:45:34;12.20;99.90
5174;DHT22;2606;50.934;6.934;2022-12-29T13:48:14;12.20;99.90
5174;DHT22;2606;50.934;6.934;2022-12-29T13:50:44;12.20;99.90
5174;DHT22;2606;50.934;6.934;2022-12-29T13:53:56;12.10;99.90
5174;DHT22;2606;50.934;6.934;2022-12-29T13:59:34;12.10;99.90
5174;DHT22;2606;50.934;6.934;2022-12-29T14:02:36;12.00;99.90
5174;DHT22;2606;50.934;6.934;2022-12-29T14:05:27;12.00;99.90
5174;DHT22;2606;50.934;6.934;2022-12-29T14:08:04;12.00;99.90
5174;DHT22;2606;50.934;6.934;2022-12-29T14:10:45;12.00;99.90
5174;DHT22;2606;50.934;6.934;2022-12-29T14:13:14;11.90;99.90
5174;DHT22;2606;50.934;6.934;2022-12-29T14:15:43;12.00;99.90
5174;DHT22;2606;50.934;6.934;2022-12-29T14:18:19;11.90;99.90
5174;DHT22;2606;50.934;6.934;2022-12-29T14:23:26;12.00;99.90
5174;DHT22;2606;50.934;6.934;2022-12-29T14:25:57;12.00;99.90
5174;DHT22;2606;50.934;6.934;2022-12-29T14:28:28;12.00;99.90
5174;DHT22;2606;50.934;6.934;2022-12-29T14:30:56;11.90;99.90
5174;DHT22;2606;50.934;6.934;2022-12-29T14:33:23;11.90;99.90
5174;DHT22;2606;50.934;6.934;2022-12-29T14:35:51;11.90;99.90
5174;DHT22;2606;50.934;6.934;2022-12-29T14:38:43;11.90;99.90
5174;DHT22;2606;50.934;6.934;2022-12-29T14:41:35;11.80;99.90
5174;DHT22;2606;50.934;6.934;2022-12-29T14:44:16;11.80;99.90
5174;DHT22;2606;50.934;6.934;2022-12-29T14:46:45;11.80;99.90
5174;DHT22;2606;50.934;6.934;2022-12-29T14:49:18;11.80;99.90
5174;DHT22;2606;50.934;6.934;2022-12-29T14:51:45;11.70;99.90
5174;DHT22;2606;50.934;6.934;2022-12-29T14:57:03;11.70;99.90
5174;DHT22;2606;50.934;6.934;2022-12-29T14:59:39;11.60;99.90
5174;DHT22;2606;50.934;6.934;2022-12-29T15:02:16;11.60;99.90
5174;DHT22;2606;50.934;6.934;2022-12-29T15:04:44;11.60;99.90
5174;DHT22;2606;50.934;6.934;2022-12-29T15:07:12;11.60;99.90
5174;DHT22;2606;50.934;6.934;2022-12-29T15:10:16;11.50;99.90
5174;DHT22;2606;50.934;6.934;2022-12-29T15:12:52;11.50;99.90
5174;DHT22;2606;50.934;6.934;2022-12-29T15:15:24;11.40;99.90
5174;DHT22;2606;50.934;6.934;2022-12-29T15:17:50;11.40;99.90
5174;DHT22;2606;50.934;6.934;2022-12-29T15:20:27;11.40;99.90
5174;DHT22;2606;50.934;6.934;2022-12-29T15:23:10;11.40;99.90
5174;DHT22;2606;50.934;6.934;2022-12-29T15:25:44;11.30;99.90
5174;DHT22;2606;50.934;6.934;2022-12-29T15:28:12;11.20;99.90
5174;DHT22;2606;50.934;6.934;2022-12-29T15:30:56;11.20;99.90
5174;DHT22;2606;50.934;6.934;2022-12-29T15:33:27;11.10;99.90
5174;DHT22;2606;50.934;6.934;2022-12-29T15:35:54;11.10;99.90
5174;DHT22;2606;50.934;6.934;2022-12-29T15:38:27;11.10;99.90
5174;DHT22;2606;50.934;6.934;2022-12-29T15:40:59;11.00;99.90
5174;DHT22;2606;50.934;6.934;2022-12-29T15:43:37;11.00;99.90
5174;DHT22;2606;50.934;6.934;2022-12-29T15:46:06;10.90;99.90
5174;DHT22;2606;50.934;6.934;2022-12-29T15:48:32;10.90;99.90
5174;DHT22;2606;50.934;6.934;2022-12-29T15:50:58;10.90;99.90
5174;DHT22;2606;50.934;6.934;2022-12-29T15:53:28;10.90;99.90
5174;DHT22;2606;50.934;6.934;2022-12-29T15:56:07;10.80;99.90
5174;DHT22;2606;50.934;6.934;2022-12-29T15:58:43;10.80;99.90
5174;DHT22;2606;50.934;6.934;2022-12-29T16:03:42;10.70;99.90
5174;DHT22;2606;50.934;6.934;2022-12-29T16:06:43;10.70;99.90
5174;DHT22;2606;50.934;6.934;2022-12-29T16:09:07;10.70;99.90
5174;DHT22;2606;50.934;6.934;2022-12-29T16:11:41;10.70;99.90
5174;DHT22;2606;50.934;6.934;2022-12-29T16:14:14;10.60;99.90
5174;DHT22;2606;50.934;6.934;2022-12-29T16:16:42;10.60;99.90
5174;DHT22;2606;50.934;6.934;2022-12-29T16:19:13;10.60;99.90
5174;DHT22;2606;50.934;6.934;2022-12-29T16:21:40;10.50;99.90
5174;DHT22;2606;50.934;6.934;2022-12-29T16:24:12;10.50;99.90
5174;DHT22;2606;50.934;6.934;2022-12-29T16:26:39;10.50;99.90
5174;DHT22;2606;50.934;6.934;2022-12-29T16:29:12;10.40;99.90
5174;DHT22;2606;50.934;6.934;2022-12-29T16:31:56;10.40;99.90
5174;DHT22;2606;50.934;6.934;2022-12-29T16:37:32;10.30;99.90
5174;DHT22;2606;50.934;6.934;2022-12-29T16:42:46;10.30;99.90
5174;DHT22;2606;50.934;6.934;2022-12-29T16:50:42;10.20;99.90
5174;DHT22;2606;50.934;6.934;2022-12-29T16:55:48;10.20;99.90
5174;DHT22;2606;50.934;6.934;2022-12-29T16:58:26;10.20;99.90
5174;DHT22;2606;50.934;6.934;2022-12-29T17:00:54;10.20;99.90
5174;DHT22;2606;50.934;6.934;2022-12-29T17:03:21;10.10;99.90
5174;DHT22;2606;50.934;6.934;2022-12-29T17:05:47;10.10;99.90
5174;DHT22;2606;50.934;6.934;2022-12-29T17:08:21;10.10;99.90
5174;DHT22;2606;50.934;6.934;2022-12-29T17:10:53;10.10;99.90
5174;DHT22;2606;50.934;6.934;2022-12-29T17:13:39;10.20;99.90
5174;DHT22;2606;50.934;6.934;2022-12-29T17:16:10;10.10;99.90
5174;DHT22;2606;50.934;6.934;2022-12-29T17:18:36;10.00;99.90
5174;DHT22;2606;50.934;6.934;2022-12-29T17:21:02;10.00;99.90
5174;DHT22;2606;50.934;6.934;2022-12-29T17:23:29;10.00;99.90
5174;DHT22;2606;50.934;6.934;2022-12-29T17:25:56;10.00;99.90
5174;DHT22;2606;50.934;6.934;2022-12-29T17:28:24;10.00;99.90
5174;DHT22;2606;50.934;6.934;2022-12-29T17:30:57;10.00;99.90
5174;DHT22;2606;50.934;6.934;2022-12-29T17:33:23;10.00;99.90
5174;DHT22;2606;50.934;6.934;2022-12-29T17:35:49;10.00;99.90
5174;DHT22;2606;50.934;6.934;2022-12-29T17:38:27;9.90;99.90
5174;DHT22;2606;50.934;6.934;2022-12-29T17:40:53;10.00;99.90
5174;DHT22;2606;50.934;6.934;2022-12-29T17:43:19;9.90;99.90
5174;DHT22;2606;50.934;6.934;2022-12-29T17:45:50;9.90;99.90
5174;DHT22;2606;50.934;6.934;2022-12-29T17:48:18;9.90;99.90
5174;DHT22;2606;50.934;6.934;2022-12-29T17:50:45;9.90;99.90
5174;DHT22;2606;50.934;6.934;2022-12-29T17:53:14;9.90;99.90
5174;DHT22;2606;50.934;6.934;2022-12-29T17:55:40;9.80;99.90
5174;DHT22;2606;50.934;6.934;2022-12-29T17:58:26;9.90;99.90
5174;DHT22;2606;50.934;6.934;2022-12-29T18:00:59;9.80;99.90
5174;DHT22;2606;50.934;6.934;2022-12-29T18:03:33;9.80;99.90
5174;DHT22;2606;50.934;6.934;2022-12-29T18:05:59;9.80;99.90
5174;DHT22;2606;50.934;6.934;2022-12-29T18:08:25;9.70;99.90
5174;DHT22;2606;50.934;6.934;2022-12-29T18:10:54;9.70;99.90
5174;DHT22;2606;50.934;6.934;2022-12-29T18:13:26;9.70;99.90
5174;DHT22;2606;50.934;6.934;2022-12-29T18:15:53;9.70;99.90
5174;DHT22;2606;50.934;6.934;2022-12-29T18:18:24;9.70;99.90
5174;DHT22;2606;50.934;6.934;2022-12-29T18:20:52;9.70;99.90
5174;DHT22;2606;50.934;6.934;2022-12-29T18:23:20;9.80;99.90
5174;DHT22;2606;50.934;6.934;2022-12-29T18:25:56;9.80;99.90
5174;DHT22;2606;50.934;6.934;2022-12-29T18:28:24;9.80;99.90